sensor_id;sensor_type;location;lat;lon;timestamp;pressure;altitude;pressure_sealevel;temperature;humidity
74429;BME280;62860;52.134;23.714;2022-09-09T00:04:05;1026.2;;;13.1;54.8
74429;BME280;62860;52.134;23.714;2022-09-09T00:08:31;1026.3;;;13.1;54.8
74429;BME280;62860;52.134;23.714;2022-09-09T00:13:24;1026.4;;;13.1;54.8
74429;BME280;62860;52.134;23.714;2022-09-09T00:19:01;1026.5;;;13.1;54.8
74429;BME280;62860;52.134;23.714;2022-09-09T00:23:59;1026.4;;;13.1;54.7
74429;BME280;62860;52.134;23.714;2022-09-09T00:28:49;1026.4;;;13.1;54.7
74429;BME280;62860;52.134;23.714;2022-09-09T00:33:47;1026.3;;;13.2;54.5
74429;BME280;62860;52.134;23.714;2022-09-09T00:39:00;1026.2;;;13.3;54.3
74429;BME280;62860;52.134;23.714;2022-09-09T00:44:02;1026.2;;;13.3;54.1
74429;BME280;62860;52.134;23.714;2022-09-09T00:49:39;1026.2;;;13.3;54.1
74429;BME280;62860;52.134;23.714;2022-09-09T00:53:23;1026.2;;;13.3;54
74429;BME280;62860;52.134;23.714;2022-09-09T00:58:29;1026.2;;;13.3;54
74429;BME280;62860;52.134;23.714;2022-09-09T01:03:30;1026.2;;;13.4;54
74429;BME280;62860;52.134;23.714;2022-09-09T01:13:27;1026.3;;;13.4;53.9
74429;BME280;62860;52.134;23.714;2022-09-09T01:18:53;1026.4;;;13.5;54
74429;BME280;62860;52.134;23.714;2022-09-09T01:28:43;1026.3;;;13.6;53.8
74429;BME280;62860;52.134;23.714;2022-09-09T01:33:59;1026.2;;;13.6;53.8
74429;BME280;62860;52.134;23.714;2022-09-09T01:38:53;1026.1;;;13.5;53.9
74429;BME280;62860;52.134;23.714;2022-09-09T01:43:29;1026;;;13.4;54.1
74429;BME280;62860;52.134;23.714;2022-09-09T01:48:29;1026.1;;;13.4;54.4
74429;BME280;62860;52.134;23.714;2022-09-09T01:53:23;1026.1;;;13.4;54.5
74429;BME280;62860;52.134;23.714;2022-09-09T01:59:03;1026;;;13.5;54.5
74429;BME280;62860;52.134;23.714;2022-09-09T02:03:44;1026;;;13.5;54.5
74429;BME280;62860;52.134;23.714;2022-09-09T02:08:49;1025.9;;;13.6;54.9
74429;BME280;62860;52.134;23.714;2022-09-09T02:13:48;1025.8;;;13.6;56.3
74429;BME280;62860;52.134;23.714;2022-09-09T02:19:08;1025.8;;;13.4;58.5
74429;BME280;62860;52.134;23.714;2022-09-09T02:23:40;1025.8;;;12.9;62
74429;BME280;62860;52.134;23.714;2022-09-09T02:28:46;1025.8;;;12.4;65.2
74429;BME280;62860;52.134;23.714;2022-09-09T02:33:41;1025.7;;;12;67
74429;BME280;62860;52.134;23.714;2022-09-09T02:38:28;1025.8;;;11.8;68.3
74429;BME280;62860;52.134;23.714;2022-09-09T02:43:31;1025.8;;;11.7;68.9
74429;BME280;62860;52.134;23.714;2022-09-09T02:49:00;1025.8;;;11.6;69.2
74429;BME280;62860;52.134;23.714;2022-09-09T02:54:04;1025.8;;;11.6;70
74429;BME280;62860;52.134;23.714;2022-09-09T02:58:19;1025.8;;;11.4;70.7
74429;BME280;62860;52.134;23.714;2022-09-09T03:03:41;1025.8;;;11.3;72.4
74429;BME280;62860;52.134;23.714;2022-09-09T03:08:49;1025.9;;;11.1;73.3
74429;BME280;62860;52.134;23.714;2022-09-09T03:13:59;1026;;;11;74.1
74429;BME280;62860;52.134;23.714;2022-09-09T03:18:29;1026;;;10.8;75.1
74429;BME280;62860;52.134;23.714;2022-09-09T03:23:19;1025.9;;;10.7;76.2
74429;BME280;62860;52.134;23.714;2022-09-09T03:28:35;1025.8;;;10.7;76.8
74429;BME280;62860;52.134;23.714;2022-09-09T03:33:29;1025.8;;;10.6;76.9
74429;BME280;62860;52.134;23.714;2022-09-09T03:38:33;1025.8;;;10.5;78
74429;BME280;62860;52.134;23.714;2022-09-09T03:43:35;1025.8;;;10.4;78.4
74429;BME280;62860;52.134;23.714;2022-09-09T03:48:51;1025.7;;;10.4;78.5
74429;BME280;62860;52.134;23.714;2022-09-09T03:53:49;1025.8;;;10.4;78.8
74429;BME280;62860;52.134;23.714;2022-09-09T03:58:59;1025.7;;;10.4;79
74429;BME280;62860;52.134;23.714;2022-09-09T04:03:51;1025.7;;;10.3;79.3
74429;BME280;62860;52.134;23.714;2022-09-09T04:08:59;1025.7;;;10.3;79.3
74429;BME280;62860;52.134;23.714;2022-09-09T04:14:01;1025.8;;;10.3;79.7
74429;BME280;62860;52.134;23.714;2022-09-09T04:18:27;1025.8;;;10.3;79.9
74429;BME280;62860;52.134;23.714;2022-09-09T04:23:35;1025.8;;;10.3;80.1
74429;BME280;62860;52.134;23.714;2022-09-09T04:28:51;1025.8;;;10.2;80.4
74429;BME280;62860;52.134;23.714;2022-09-09T04:34:03;1025.8;;;10.3;80.7
74429;BME280;62860;52.134;23.714;2022-09-09T04:38:45;1025.8;;;10.3;80.9
74429;BME280;62860;52.134;23.714;2022-09-09T04:43:49;1025.8;;;10.4;81
74429;BME280;62860;52.134;23.714;2022-09-09T04:48:49;1025.7;;;10.3;81.1
74429;BME280;62860;52.134;23.714;2022-09-09T04:53:37;1025.7;;;10.3;81.3
74429;BME280;62860;52.134;23.714;2022-09-09T04:58:39;1025.8;;;10.3;81.8
74429;BME280;62860;52.134;23.714;2022-09-09T05:03:50;1025.9;;;10.3;81.7
74429;BME280;62860;52.134;23.714;2022-09-09T05:08:19;1026;;;10.3;81.9
74429;BME280;62860;52.134;23.714;2022-09-09T05:13:29;1026;;;10.3;82
74429;BME280;62860;52.134;23.714;2022-09-09T05:18:29;1026;;;10.3;82.3
74429;BME280;62860;52.134;23.714;2022-09-09T05:24:05;1026;;;10.2;82.4
74429;BME280;62860;52.134;23.714;2022-09-09T05:28:53;1026;;;10.3;82.5
74429;BME280;62860;52.134;23.714;2022-09-09T05:33:38;1026;;;10.2;82.7
74429;BME280;62860;52.134;23.714;2022-09-09T05:38:43;1025.9;;;10.2;82.9
74429;BME280;62860;52.134;23.714;2022-09-09T05:44:05;1025.9;;;10.1;83
74429;BME280;62860;52.134;23.714;2022-09-09T05:49:05;1025.9;;;10.1;83.4
74429;BME280;62860;52.134;23.714;2022-09-09T05:53:19;1026;;;10.1;83.4
74429;BME280;62860;52.134;23.714;2022-09-09T05:58:31;1026;;;10.2;83.4
74429;BME280;62860;52.134;23.714;2022-09-09T06:03:44;1026;;;10.2;83.5
74429;BME280;62860;52.134;23.714;2022-09-09T06:08:48;1026;;;10.1;83.8
74429;BME280;62860;52.134;23.714;2022-09-09T06:13:39;1026;;;10.1;84
74429;BME280;62860;52.134;23.714;2022-09-09T06:18:29;1026.1;;;10.1;84.3
74429;BME280;62860;52.134;23.714;2022-09-09T06:23:29;1026.1;;;10.1;84.6
74429;BME280;62860;52.134;23.714;2022-09-09T06:29:03;1026.1;;;10.1;85.2
74429;BME280;62860;52.134;23.714;2022-09-09T06:33:50;1026.1;;;10;85.5
74429;BME280;62860;52.134;23.714;2022-09-09T06:39:06;1026.1;;;10.1;85.4
74429;BME280;62860;52.134;23.714;2022-09-09T06:44:05;1026.2;;;10.1;85.3
74429;BME280;62860;52.134;23.714;2022-09-09T06:48:40;1026.2;;;10.2;85.5
74429;BME280;62860;52.134;23.714;2022-09-09T06:53:40;1026.2;;;10.1;85.9
74429;BME280;62860;52.134;23.714;2022-09-09T06:58:54;1026.2;;;10.1;85.3
74429;BME280;62860;52.134;23.714;2022-09-09T07:04:05;1026.3;;;10.2;85.6
74429;BME280;62860;52.134;23.714;2022-09-09T07:08:48;1026.3;;;10.2;85.4
74429;BME280;62860;52.134;23.714;2022-09-09T07:13:53;1026.4;;;10.2;85.4
74429;BME280;62860;52.134;23.714;2022-09-09T07:18:53;1026.5;;;10.2;85.1
74429;BME280;62860;52.134;23.714;2022-09-09T07:23:41;1026.5;;;10.2;85.4
74429;BME280;62860;52.134;23.714;2022-09-09T07:28:20;1026.6;;;10.3;85
74429;BME280;62860;52.134;23.714;2022-09-09T07:33:51;1026.6;;;10.3;84.8
74429;BME280;62860;52.134;23.714;2022-09-09T07:38:19;1026.7;;;10.4;84.8
74429;BME280;62860;52.134;23.714;2022-09-09T07:43:29;1026.7;;;10.4;85
74429;BME280;62860;52.134;23.714;2022-09-09T07:48:43;1026.7;;;10.4;84.7
74429;BME280;62860;52.134;23.714;2022-09-09T07:54:08;1026.8;;;10.5;85
74429;BME280;62860;52.134;23.714;2022-09-09T07:58:54;1026.8;;;10.6;84.8
74429;BME280;62860;52.134;23.714;2022-09-09T08:03:39;1026.8;;;10.6;84.6
74429;BME280;62860;52.134;23.714;2022-09-09T08:08:43;1026.7;;;10.7;84.9
74429;BME280;62860;52.134;23.714;2022-09-09T08:14:08;1026.7;;;10.7;84.7
74429;BME280;62860;52.134;23.714;2022-09-09T08:19:08;1026.8;;;10.8;84.6
74429;BME280;62860;52.134;23.714;2022-09-09T08:23:19;1026.7;;;10.9;84.3
74429;BME280;62860;52.134;23.714;2022-09-09T08:28:29;1026.7;;;10.9;85.1
74429;BME280;62860;52.134;23.714;2022-09-09T08:33:19;1026.7;;;10.8;85.4
74429;BME280;62860;52.134;23.714;2022-09-09T08:38:19;1026.7;;;10.8;85.2
74429;BME280;62860;52.134;23.714;2022-09-09T08:43:40;1026.7;;;10.9;85.1
74429;BME280;62860;52.134;23.714;2022-09-09T08:53:58;1026.7;;;10.8;85.1
74429;BME280;62860;52.134;23.714;2022-09-09T08:59:09;1026.7;;;10.8;85.2
74429;BME280;62860;52.134;23.714;2022-09-09T09:03:32;1026.6;;;10.8;85.2
74429;BME280;62860;52.134;23.714;2022-09-09T09:09:45;1026.6;;;10.9;84.9
74429;BME280;62860;52.134;23.714;2022-09-09T09:14:02;1026.7;;;11;85
74429;BME280;62860;52.134;23.714;2022-09-09T09:18:29;1026.7;;;11.2;84.2
74429;BME280;62860;52.134;23.714;2022-09-09T09:23:29;1026.8;;;11.3;83.7
74429;BME280;62860;52.134;23.714;2022-09-09T09:28:29;1026.9;;;11.3;83.9
74429;BME280;62860;52.134;23.714;2022-09-09T09:33:45;1026.9;;;11.2;84.3
74429;BME280;62860;52.134;23.714;2022-09-09T09:38:51;1027.1;;;11.2;84.2
74429;BME280;62860;52.134;23.714;2022-09-09T09:44:06;1027.3;;;11.2;84.5
74429;BME280;62860;52.134;23.714;2022-09-09T09:48:58;1027.4;;;11.1;84
74429;BME280;62860;52.134;23.714;2022-09-09T09:53:53;1027.4;;;11.1;84.5
74429;BME280;62860;52.134;23.714;2022-09-09T09:58:57;1027.4;;;11;84.5
74429;BME280;62860;52.134;23.714;2022-09-09T10:03:52;1027.3;;;11;84.8
74429;BME280;62860;52.134;23.714;2022-09-09T10:08:18;1027.2;;;11;85.2
74429;BME280;62860;52.134;23.714;2022-09-09T10:13:50;1027.1;;;11.1;85.2
74429;BME280;62860;52.134;23.714;2022-09-09T10:25:14;1027.1;;;11.1;85.8
74429;BME280;62860;52.134;23.714;2022-09-09T10:29:13;1027.2;;;11.1;85.8
74429;BME280;62860;52.134;23.714;2022-09-09T10:33:22;1027.2;;;11.2;85.7
74429;BME280;62860;52.134;23.714;2022-09-09T10:38:40;1027.2;;;11.2;85.8
74429;BME280;62860;52.134;23.714;2022-09-09T10:50:12;1027.2;;;11.3;86.2
74429;BME280;62860;52.134;23.714;2022-09-09T10:53:21;1027.2;;;11.3;86.3
74429;BME280;62860;52.134;23.714;2022-09-09T10:58:36;1027.3;;;11.5;86.1
74429;BME280;62860;52.134;23.714;2022-09-09T11:03:33;1027.3;;;11.5;85.6
74429;BME280;62860;52.134;23.714;2022-09-09T11:08:28;1027.4;;;11.6;85.6
74429;BME280;62860;52.134;23.714;2022-09-09T11:13:55;1027.4;;;11.5;86.1
74429;BME280;62860;52.134;23.714;2022-09-09T11:18:38;1027.5;;;11.4;86.1
74429;BME280;62860;52.134;23.714;2022-09-09T11:23:53;1027.5;;;11.5;86
74429;BME280;62860;52.134;23.714;2022-09-09T11:28:59;1027.5;;;11.5;86.5
74429;BME280;62860;52.134;23.714;2022-09-09T11:34:10;1027.5;;;11.5;86.3
74429;BME280;62860;52.134;23.714;2022-09-09T11:39:15;1027.5;;;11.5;86.4
74429;BME280;62860;52.134;23.714;2022-09-09T11:43:52;1027.4;;;11.6;86.3
74429;BME280;62860;52.134;23.714;2022-09-09T11:48:31;1027.4;;;11.8;86.3
74429;BME280;62860;52.134;23.714;2022-09-09T11:53:20;1027.4;;;11.8;86.1
74429;BME280;62860;52.134;23.714;2022-09-09T11:58:17;1027.4;;;11.9;85.8
74429;BME280;62860;52.134;23.714;2022-09-09T12:03:46;1027.3;;;12;85.4
74429;BME280;62860;52.134;23.714;2022-09-09T12:08:51;1027.3;;;12;85.4
74429;BME280;62860;52.134;23.714;2022-09-09T12:14:01;1027.3;;;12.1;85.2
74429;BME280;62860;52.134;23.714;2022-09-09T12:18:49;1027.3;;;12;85.5
74429;BME280;62860;52.134;23.714;2022-09-09T12:23:55;1027.4;;;11.9;85.3
74429;BME280;62860;52.134;23.714;2022-09-09T12:29:53;1027.4;;;11.8;85.3
74429;BME280;62860;52.134;23.714;2022-09-09T12:33:40;1027.4;;;11.8;85.5
74429;BME280;62860;52.134;23.714;2022-09-09T12:38:37;1027.4;;;11.8;85.6
74429;BME280;62860;52.134;23.714;2022-09-09T12:43:18;1027.4;;;11.8;85.5
74429;BME280;62860;52.134;23.714;2022-09-09T12:48:29;1027.4;;;11.8;85.7
74429;BME280;62860;52.134;23.714;2022-09-09T12:54:05;1027.4;;;11.8;85.6
74429;BME280;62860;52.134;23.714;2022-09-09T12:59:17;1027.5;;;11.9;85.5
74429;BME280;62860;52.134;23.714;2022-09-09T13:03:52;1027.6;;;11.9;85.3
74429;BME280;62860;52.134;23.714;2022-09-09T13:08:54;1027.6;;;11.9;85.6
74429;BME280;62860;52.134;23.714;2022-09-09T13:13:40;1027.6;;;11.8;85.6
74429;BME280;62860;52.134;23.714;2022-09-09T13:19:15;1027.6;;;11.8;85.9
74429;BME280;62860;52.134;23.714;2022-09-09T13:24:39;1027.6;;;11.8;85.4
74429;BME280;62860;52.134;23.714;2022-09-09T13:28:54;1027.6;;;11.8;85.7
74429;BME280;62860;52.134;23.714;2022-09-09T13:33:20;1027.6;;;11.8;85.4
74429;BME280;62860;52.134;23.714;2022-09-09T13:38:17;1027.7;;;11.8;85.1
74429;BME280;62860;52.134;23.714;2022-09-09T13:43:53;1027.6;;;11.8;85.3
74429;BME280;62860;52.134;23.714;2022-09-09T13:48:37;1027.6;;;11.8;85.2
74429;BME280;62860;52.134;23.714;2022-09-09T13:53:37;1027.7;;;11.8;85.3
74429;BME280;62860;52.134;23.714;2022-09-09T13:58:54;1027.6;;;11.8;85.3
74429;BME280;62860;52.134;23.714;2022-09-09T14:03:41;1027.6;;;11.8;85.5
74429;BME280;62860;52.134;23.714;2022-09-09T14:08:52;1027.6;;;11.7;85.4
74429;BME280;62860;52.134;23.714;2022-09-09T14:13:54;1027.6;;;11.7;85.8
74429;BME280;62860;52.134;23.714;2022-09-09T14:19:10;1027.6;;;11.6;85.9
74429;BME280;62860;52.134;23.714;2022-09-09T14:23:18;1027.6;;;11.7;86
74429;BME280;62860;52.134;23.714;2022-09-09T14:28:18;1027.5;;;11.6;86.2
74429;BME280;62860;52.134;23.714;2022-09-09T14:33:40;1027.6;;;11.6;86.2
74429;BME280;62860;52.134;23.714;2022-09-09T14:39:06;1027.6;;;11.6;86.2
74429;BME280;62860;52.134;23.714;2022-09-09T14:43:50;1027.5;;;11.6;85.9
74429;BME280;62860;52.134;23.714;2022-09-09T14:48:52;1027.4;;;11.6;86
74429;BME280;62860;52.134;23.714;2022-09-09T14:53:52;1027.4;;;11.5;86.4
74429;BME280;62860;52.134;23.714;2022-09-09T14:58:40;1027.5;;;11.5;86.2
74429;BME280;62860;52.134;23.714;2022-09-09T15:03:18;1027.5;;;11.5;86
74429;BME280;62860;52.134;23.714;2022-09-09T15:08:50;1027.5;;;11.5;86
74429;BME280;62860;52.134;23.714;2022-09-09T15:13:28;1027.6;;;11.5;86
74429;BME280;62860;52.134;23.714;2022-09-09T15:18:28;1027.6;;;11.5;85.9
74429;BME280;62860;52.134;23.714;2022-09-09T15:23:38;1027.6;;;11.5;85.9
74429;BME280;62860;52.134;23.714;2022-09-09T15:29:08;1027.6;;;11.5;85.8
74429;BME280;62860;52.134;23.714;2022-09-09T15:33:55;1027.6;;;11.4;85.9
74429;BME280;62860;52.134;23.714;2022-09-09T15:38:40;1027.6;;;11.5;86.1
74429;BME280;62860;52.134;23.714;2022-09-09T15:43:28;1027.6;;;11.4;86
74429;BME280;62860;52.134;23.714;2022-09-09T15:49:11;1027.6;;;11.4;85.9
74429;BME280;62860;52.134;23.714;2022-09-09T15:54:06;1027.6;;;11.4;86.1
74429;BME280;62860;52.134;23.714;2022-09-09T15:58:55;1027.6;;;11.4;85.8
74429;BME280;62860;52.134;23.714;2022-09-09T16:03:28;1027.6;;;11.4;85.8
74429;BME280;62860;52.134;23.714;2022-09-09T16:08:18;1027.6;;;11.4;85.8
74429;BME280;62860;52.134;23.714;2022-09-09T16:13:32;1027.6;;;11.4;85.9
74429;BME280;62860;52.134;23.714;2022-09-09T16:18:40;1027.5;;;11.4;85.8
74429;BME280;62860;52.134;23.714;2022-09-09T16:23:38;1027.5;;;11.4;85.7
74429;BME280;62860;52.134;23.714;2022-09-09T16:28:44;1027.5;;;11.4;85.8
74429;BME280;62860;52.134;23.714;2022-09-09T16:34:04;1027.4;;;11.4;85.9
74429;BME280;62860;52.134;23.714;2022-09-09T16:38:52;1027.4;;;11.4;85.9
74429;BME280;62860;52.134;23.714;2022-09-09T16:44:08;1027.5;;;11.4;85.7
74429;BME280;62860;52.134;23.714;2022-09-09T16:49:06;1027.6;;;11.4;85.3
74429;BME280;62860;52.134;23.714;2022-09-09T16:53:54;1027.6;;;11.4;85.7
74429;BME280;62860;52.134;23.714;2022-09-09T16:58:38;1027.7;;;11.4;85.7
74429;BME280;62860;52.134;23.714;2022-09-09T17:03:53;1027.7;;;11.4;85.7
74429;BME280;62860;52.134;23.714;2022-09-09T17:09:07;1027.8;;;11.3;85.6
74429;BME280;62860;52.134;23.714;2022-09-09T17:13:55;1027.8;;;11.3;85.9
74429;BME280;62860;52.134;23.714;2022-09-09T17:18:54;1027.8;;;11.3;85.9
74429;BME280;62860;52.134;23.714;2022-09-09T17:23:52;1027.9;;;11.3;85.8
74429;BME280;62860;52.134;23.714;2022-09-09T17:28:18;1028;;;11.3;85.8
74429;BME280;62860;52.134;23.714;2022-09-09T17:33:54;1028.1;;;11.3;85.8
74429;BME280;62860;52.134;23.714;2022-09-09T17:38:52;1028.2;;;11.4;85.8
74429;BME280;62860;52.134;23.714;2022-09-09T17:43:18;1028.2;;;11.4;85.6
74429;BME280;62860;52.134;23.714;2022-09-09T17:48:18;1028.1;;;11.4;85.6
74429;BME280;62860;52.134;23.714;2022-09-09T17:53:18;1028.1;;;11.5;85.7
74429;BME280;62860;52.134;23.714;2022-09-09T17:59:10;1028;;;11.4;85.5
74429;BME280;62860;52.134;23.714;2022-09-09T18:04:10;1027.9;;;11.4;85.7
74429;BME280;62860;52.134;23.714;2022-09-09T18:08:47;1028;;;11.4;85.7
74429;BME280;62860;52.134;23.714;2022-09-09T18:13:18;1028;;;11.3;85.9
74429;BME280;62860;52.134;23.714;2022-09-09T18:19:09;1028;;;11.3;85.8
74429;BME280;62860;52.134;23.714;2022-09-09T18:24:10;1027.9;;;11.3;85.9
74429;BME280;62860;52.134;23.714;2022-09-09T18:28:18;1027.9;;;11.3;85.6
74429;BME280;62860;52.134;23.714;2022-09-09T18:33:28;1027.8;;;11.3;86.1
74429;BME280;62860;52.134;23.714;2022-09-09T18:38:26;1027.9;;;11.2;85.9
74429;BME280;62860;52.134;23.714;2022-09-09T18:43:28;1027.9;;;11.2;85.9
74429;BME280;62860;52.134;23.714;2022-09-09T18:48:38;1028.1;;;11.3;85.9
74429;BME280;62860;52.134;23.714;2022-09-09T18:53:38;1028.1;;;11.3;85.7
74429;BME280;62860;52.134;23.714;2022-09-09T18:58:55;1028.1;;;11.3;85.5
74429;BME280;62860;52.134;23.714;2022-09-09T19:03:42;1028.2;;;11.3;85.4
74429;BME280;62860;52.134;23.714;2022-09-09T19:08:40;1028.2;;;11.4;85.5
74429;BME280;62860;52.134;23.714;2022-09-09T19:14:09;1028.3;;;11.4;85.6
74429;BME280;62860;52.134;23.714;2022-09-09T19:18:52;1028.3;;;11.3;85.4
74429;BME280;62860;52.134;23.714;2022-09-09T19:23:28;1028.2;;;11.3;85.4
74429;BME280;62860;52.134;23.714;2022-09-09T19:28:18;1028.1;;;11.3;85.6
74429;BME280;62860;52.134;23.714;2022-09-09T19:33:38;1028;;;11.3;85.6
74429;BME280;62860;52.134;23.714;2022-09-09T19:39:04;1027.9;;;11.3;85.8
74429;BME280;62860;52.134;23.714;2022-09-09T19:43:54;1027.8;;;11.3;86
74429;BME280;62860;52.134;23.714;2022-09-09T19:49:03;1027.7;;;11.2;86.4
74429;BME280;62860;52.134;23.714;2022-09-09T19:53:53;1027.7;;;11.2;86.4
74429;BME280;62860;52.134;23.714;2022-09-09T19:58:56;1027.7;;;11.2;86.2
74429;BME280;62860;52.134;23.714;2022-09-09T20:03:41;1027.8;;;11.3;86.2
74429;BME280;62860;52.134;23.714;2022-09-09T20:08:52;1027.7;;;11.3;86.2
74429;BME280;62860;52.134;23.714;2022-09-09T20:13:18;1027.7;;;11.3;86.3
74429;BME280;62860;52.134;23.714;2022-09-09T20:18:18;1027.6;;;11.3;86.3
74429;BME280;62860;52.134;23.714;2022-09-09T20:23:18;1027.6;;;11.2;86.3
74429;BME280;62860;52.134;23.714;2022-09-09T20:29:10;1027.6;;;11.2;86.4
74429;BME280;62860;52.134;23.714;2022-09-09T20:34:10;1027.6;;;11.3;86.1
74429;BME280;62860;52.134;23.714;2022-09-09T20:38:42;1027.6;;;11.3;86.1
74429;BME280;62860;52.134;23.714;2022-09-09T20:43:28;1027.6;;;11.3;86.1
74429;BME280;62860;52.134;23.714;2022-09-09T20:49:08;1027.6;;;11.4;85.9
74429;BME280;62860;52.134;23.714;2022-09-09T20:54:11;1027.6;;;11.4;85.8
74429;BME280;62860;52.134;23.714;2022-09-09T20:58:42;1027.7;;;11.4;85.5
74429;BME280;62860;52.134;23.714;2022-09-09T21:03:54;1027.7;;;11.4;85.7
74429;BME280;62860;52.134;23.714;2022-09-09T21:08:36;1027.7;;;11.4;85.3
74429;BME280;62860;52.134;23.714;2022-09-09T21:13:18;1027.7;;;11.5;85.4
74429;BME280;62860;52.134;23.714;2022-09-09T21:18:38;1027.7;;;11.4;85.6
74429;BME280;62860;52.134;23.714;2022-09-09T21:23:53;1027.7;;;11.4;85.5
74429;BME280;62860;52.134;23.714;2022-09-09T21:28:28;1027.7;;;11.4;85.5
74429;BME280;62860;52.134;23.714;2022-09-09T21:33:55;1027.7;;;11.4;85.5
74429;BME280;62860;52.134;23.714;2022-09-09T21:38:40;1027.6;;;11.4;85.4
74429;BME280;62860;52.134;23.714;2022-09-09T21:44:08;1027.6;;;11.5;85.5
74429;BME280;62860;52.134;23.714;2022-09-09T21:48:56;1027.6;;;11.5;85.4
74429;BME280;62860;52.134;23.714;2022-09-09T21:53:28;1027.6;;;11.5;85.6
74429;BME280;62860;52.134;23.714;2022-09-09T21:58:28;1027.5;;;11.5;85.7
74429;BME280;62860;52.134;23.714;2022-09-09T22:03:28;1027.5;;;11.5;85.7
74429;BME280;62860;52.134;23.714;2022-09-09T22:08:52;1027.5;;;11.5;85.8
74429;BME280;62860;52.134;23.714;2022-09-09T22:14:08;1027.4;;;11.5;85.7
74429;BME280;62860;52.134;23.714;2022-09-09T22:18:28;1027.4;;;11.5;85.8
74429;BME280;62860;52.134;23.714;2022-09-09T22:23:52;1027.4;;;11.5;85.8
74429;BME280;62860;52.134;23.714;2022-09-09T22:28:28;1027.3;;;11.5;85.8
74429;BME280;62860;52.134;23.714;2022-09-09T22:33:32;1027.3;;;11.5;85.9
74429;BME280;62860;52.134;23.714;2022-09-09T22:38:40;1027.4;;;11.5;85.9
74429;BME280;62860;52.134;23.714;2022-09-09T22:43:52;1027.3;;;11.5;85.9
74429;BME280;62860;52.134;23.714;2022-09-09T22:48:18;1027.2;;;11.5;86
74429;BME280;62860;52.134;23.714;2022-09-09T22:53:58;1027.2;;;11.5;86
74429;BME280;62860;52.134;23.714;2022-09-09T22:58:28;1027.2;;;11.5;86
74429;BME280;62860;52.134;23.714;2022-09-09T23:04:04;1027.2;;;11.6;85.9
74429;BME280;62860;52.134;23.714;2022-09-09T23:08:53;1027.2;;;11.6;86
74429;BME280;62860;52.134;23.714;2022-09-09T23:13:30;1027.1;;;11.6;86
74429;BME280;62860;52.134;23.714;2022-09-09T23:18:32;1027.1;;;11.6;86
74429;BME280;62860;52.134;23.714;2022-09-09T23:24:06;1027.2;;;11.6;85.8
74429;BME280;62860;52.134;23.714;2022-09-09T23:29:06;1027.1;;;11.6;85.9
74429;BME280;62860;52.134;23.714;2022-09-09T23:34:06;1027.1;;;11.6;85.9
74429;BME280;62860;52.134;23.714;2022-09-09T23:38:36;1027.1;;;11.7;85.8
74429;BME280;62860;52.134;23.714;2022-09-09T23:43:18;1027;;;11.7;85.7
74429;BME280;62860;52.134;23.714;2022-09-09T23:49:06;1027;;;11.7;85.9
74429;BME280;62860;52.134;23.714;2022-09-09T23:53:39;1027;;;11.6;85.9
74429;BME280;62860;52.134;23.714;2022-09-09T23:58:18;1027;;;11.7;85.9
